Sexsmith, Canada
Current Conditions -  °F | °C
As of 8:00 AM on Friday 31 Oct 2014 (Local Time) from CYQU Reporting Station
Light Rain Light Rain  
Wind Chill: 29°   Ceiling: 5000
Heat Index: 34°   Visibility: 20mi
Dew Point: 32°   Wind: 6mph
Humidity: 93%   Direction: 240°WSW
Pressure: 29.61"   Gusts: NA
Location:  55.35°N, 118.78°W
Report Text: CYQU 311400Z 24005KT 20SM -RA OVC050 01/00 A2961 RMK SC8 SLP056
Loading
Personal Weather Stations






























Interactive Weather Map
Tropical Storm Tracking
New forecast layout! Learn more

10-Day Weather Forecast

Advertisements
Track Severe Weather on mobile